createdAt,value
2018-12-05T00:02:01.974Z,1.87
2018-12-05T00:05:06.038Z,1.70
2018-12-05T00:08:09.190Z,2.57
2018-12-05T00:11:12.238Z,1.90
2018-12-05T00:14:15.467Z,2.03
2018-12-05T00:17:18.530Z,1.63
2018-12-05T00:20:21.550Z,2.07
2018-12-05T00:23:25.534Z,2.10
2018-12-05T00:26:28.551Z,2.03
2018-12-05T00:29:31.514Z,2.43
2018-12-05T00:32:34.574Z,1.60
2018-12-05T00:35:37.594Z,1.70
2018-12-05T00:38:40.614Z,1.73
2018-12-05T00:41:43.574Z,2.10
2018-12-05T00:44:46.678Z,1.77
2018-12-05T00:47:51.710Z,2.10
2018-12-05T00:50:54.818Z,1.80
2018-12-05T00:53:57.785Z,1.73
2018-12-05T00:57:00.915Z,2.23
2018-12-05T01:00:05.127Z,2.27
2018-12-05T01:03:08.243Z,2.10
2018-12-05T01:06:11.286Z,1.80
2018-12-05T01:09:14.310Z,2.07
2018-12-05T01:12:17.270Z,1.80
2018-12-05T01:15:20.402Z,2.23
2018-12-05T01:18:23.452Z,1.87
2018-12-05T01:21:26.589Z,1.50
2018-12-05T01:24:29.624Z,1.90
2018-12-05T01:27:33.072Z,2.20
2018-12-05T01:30:36.119Z,2.13
2018-12-05T01:33:39.375Z,2.00
2018-12-05T01:36:42.411Z,2.30
2018-12-05T01:39:45.547Z,2.23
2018-12-05T01:42:48.597Z,1.63
2018-12-05T01:45:52.267Z,1.80
2018-12-05T01:48:55.314Z,2.17
2018-12-05T01:51:58.475Z,1.90
2018-12-05T01:55:01.459Z,2.03
2018-12-05T01:58:04.735Z,1.80
2018-12-05T02:01:07.759Z,1.60
2018-12-05T02:04:11.103Z,2.67
2018-12-05T02:07:14.253Z,2.67
2018-12-05T02:10:17.331Z,2.03
2018-12-05T02:13:20.486Z,1.90
2018-12-05T02:16:23.675Z,2.27
2018-12-05T02:19:26.723Z,2.23
2018-12-05T02:22:29.964Z,2.07
2018-12-05T02:25:33.014Z,2.00
2018-12-05T02:28:36.248Z,1.90
2018-12-05T02:31:39.308Z,2.40
2018-12-05T02:34:42.433Z,2.90
2018-12-05T02:37:45.484Z,2.07
2018-12-05T02:40:48.619Z,2.37
2018-12-05T02:43:51.771Z,2.50
2018-12-05T02:46:54.907Z,2.17
2018-12-05T02:49:57.955Z,2.57
2018-12-05T02:53:01.296Z,3.10
2018-12-05T02:56:04.345Z,2.33
2018-12-05T02:59:07.455Z,2.33
2018-12-05T03:02:10.430Z,3.13
2018-12-05T03:05:13.555Z,2.47
2018-12-05T03:08:16.612Z,2.67
2018-12-05T03:11:19.603Z,2.30
2018-12-05T03:14:22.595Z,2.13
2018-12-05T03:17:25.579Z,2.33
2018-12-05T03:20:28.576Z,2.77
2018-12-05T03:23:31.566Z,2.67
2018-12-05T03:26:34.550Z,3.20
2018-12-05T03:29:37.539Z,2.47
2018-12-05T03:32:40.538Z,2.57
2018-12-05T03:35:43.523Z,3.30
2018-12-05T03:38:46.508Z,2.77
2018-12-05T03:41:49.556Z,2.87
2018-12-05T03:44:52.591Z,2.90
2018-12-05T03:47:55.591Z,2.13
2018-12-05T03:50:58.576Z,2.53
2018-12-05T03:54:01.560Z,2.40
2018-12-05T03:57:04.555Z,2.90
2018-12-05T04:00:07.857Z,2.70
2018-12-05T04:03:10.841Z,2.57
2018-12-05T04:06:13.834Z,2.20
2018-12-05T04:09:16.803Z,2.40
2018-12-05T04:12:19.811Z,2.83
2018-12-05T04:15:23.012Z,2.20
2018-12-05T04:18:26.005Z,2.70
2018-12-05T04:21:28.981Z,2.20
2018-12-05T04:24:31.972Z,2.50
2018-12-05T04:27:34.963Z,2.43
2018-12-05T04:30:37.951Z,2.30
2018-12-05T04:33:40.928Z,2.70
2018-12-05T04:36:43.932Z,2.60
2018-12-05T04:39:47.743Z,3.23
2018-12-05T04:42:50.824Z,3.63
2018-12-05T04:45:53.823Z,3.67
2018-12-05T04:48:56.816Z,3.20
2018-12-05T04:51:59.804Z,3.47
2018-12-05T04:55:02.895Z,2.63
2018-12-05T04:58:05.894Z,2.87
2018-12-05T05:01:08.984Z,3.10
2018-12-05T05:04:11.971Z,2.37
2018-12-05T05:07:14.959Z,2.83
2018-12-05T05:10:17.947Z,3.27
2018-12-05T05:13:20.924Z,3.50
2018-12-05T05:16:23.927Z,3.07
2018-12-05T05:19:26.952Z,3.20
2018-12-05T05:22:30.015Z,3.30
2018-12-05T05:25:32.999Z,3.30
2018-12-05T05:28:35.989Z,3.20
2018-12-05T05:31:38.980Z,3.00
2018-12-05T05:34:41.973Z,2.60
2018-12-05T05:37:44.959Z,3.40
2018-12-05T05:40:47.952Z,2.90
2018-12-05T05:43:51.043Z,3.30
2018-12-05T05:46:54.135Z,3.77
2018-12-05T05:49:57.124Z,4.37
2018-12-05T05:53:00.115Z,4.20
2018-12-05T05:56:03.110Z,4.00
2018-12-05T05:59:06.193Z,4.57
2018-12-05T06:02:09.291Z,4.70
2018-12-05T06:05:12.383Z,3.80
2018-12-05T06:08:15.475Z,3.87
2018-12-05T06:11:18.468Z,4.20
2018-12-05T06:14:21.525Z,3.30
2018-12-05T06:17:24.527Z,3.20
2018-12-05T06:20:27.609Z,3.17
2018-12-05T06:23:30.631Z,4.50
2018-12-05T06:26:33.652Z,4.00
2018-12-05T06:29:36.712Z,4.53
2018-12-05T06:32:39.872Z,3.90
2018-12-05T06:35:42.896Z,3.67
2018-12-05T06:38:46.032Z,4.10
2018-12-05T06:41:49.079Z,4.47
2018-12-05T06:44:52.320Z,4.50
2018-12-05T06:47:55.391Z,3.63
2018-12-05T06:50:58.435Z,4.40
2018-12-05T06:54:01.539Z,4.20
2018-12-05T06:57:04.684Z,4.87
2018-12-05T07:00:08.308Z,5.23
2018-12-05T07:03:11.371Z,4.33
2018-12-05T07:06:14.661Z,4.47
2018-12-05T07:09:17.663Z,4.93
2018-12-05T07:12:20.719Z,4.63
2018-12-05T07:15:23.756Z,4.77
2018-12-05T07:18:26.799Z,4.97
2018-12-05T07:21:30.099Z,5.17
2018-12-05T07:24:33.094Z,5.53
2018-12-05T07:27:36.126Z,5.00
2018-12-05T07:30:39.879Z,6.90
2018-12-05T07:33:42.918Z,8.40
2018-12-05T07:36:45.870Z,6.57
2018-12-05T07:39:48.899Z,5.93
2018-12-05T07:42:51.958Z,6.50
2018-12-05T07:45:55.010Z,6.53
2018-12-05T07:48:58.037Z,6.70
2018-12-05T07:52:01.078Z,7.00
2018-12-05T07:55:04.535Z,6.50
2018-12-05T07:58:08.515Z,6.60
2018-12-05T08:01:11.534Z,6.10
2018-12-05T08:04:14.601Z,6.23
2018-12-05T08:07:17.701Z,6.20
2018-12-05T08:10:20.782Z,8.20
2018-12-05T08:13:24.720Z,7.00
2018-12-05T08:16:28.887Z,6.47
2018-12-05T08:19:31.935Z,6.10
2018-12-05T08:22:35.176Z,6.00
2018-12-05T08:25:38.222Z,5.67
2018-12-05T08:28:41.243Z,7.87
2018-12-05T08:31:44.238Z,9.37
2018-12-05T08:34:47.346Z,8.63
2018-12-05T08:37:50.390Z,8.60
2018-12-05T08:40:53.494Z,7.27
2018-12-05T08:43:56.474Z,8.90
2018-12-05T08:46:59.505Z,9.27
2018-12-05T08:50:02.655Z,9.20
2018-12-05T08:53:06.002Z,8.77
2018-12-05T08:56:09.050Z,10.07
2018-12-05T08:59:12.190Z,8.70
2018-12-05T09:02:15.215Z,8.87
2018-12-05T09:05:18.369Z,8.67
2018-12-05T09:08:21.414Z,9.77
2018-12-05T09:11:24.553Z,8.77
2018-12-05T09:14:28.854Z,9.47
2018-12-05T09:17:32.278Z,9.63
2018-12-05T09:20:35.231Z,10.03
2018-12-05T09:23:39.154Z,8.73
2018-12-05T09:26:42.230Z,16.87
2018-12-05T09:29:45.446Z,12.67
2018-12-05T09:32:48.717Z,9.97
2018-12-05T09:35:51.859Z,9.77
2018-12-05T09:38:54.905Z,9.80
2018-12-05T09:41:57.939Z,9.90
2018-12-05T09:45:00.994Z,8.93
2018-12-05T09:48:04.177Z,7.50
2018-12-05T09:51:07.172Z,8.00
2018-12-05T09:54:10.198Z,7.17
2018-12-05T09:57:13.156Z,7.40
2018-12-05T10:00:16.254Z,6.80
2018-12-05T10:03:19.354Z,8.20
2018-12-05T10:06:22.402Z,7.73
2018-12-05T10:09:25.458Z,8.17
2018-12-05T10:12:28.690Z,7.20
2018-12-05T10:15:32.738Z,6.60
2018-12-05T10:18:35.871Z,6.67
2018-12-05T10:21:38.818Z,6.10
2018-12-05T10:24:42.053Z,10.53
2018-12-05T10:27:45.002Z,6.43
2018-12-05T10:30:48.030Z,6.40
2018-12-05T10:33:52.046Z,6.07
2018-12-05T10:36:56.345Z,6.27
2018-12-05T10:39:59.428Z,5.37
2018-12-05T10:43:02.817Z,4.90
2018-12-05T10:46:05.815Z,5.00
2018-12-05T10:49:09.043Z,5.00
2018-12-05T10:52:11.999Z,4.90
2018-12-05T10:55:15.019Z,5.00
2018-12-05T10:58:18.091Z,5.03
2018-12-05T11:01:26.470Z,4.60
2018-12-05T11:04:34.815Z,4.37
2018-12-05T11:07:43.339Z,4.90
2018-12-05T11:10:51.985Z,4.12
2018-12-05T11:14:00.563Z,4.93
2018-12-05T11:17:09.058Z,4.10
2018-12-05T11:20:17.953Z,4.62
2018-12-05T11:23:29.182Z,5.20
2018-12-05T11:26:41.524Z,4.40
2018-12-05T11:29:46.411Z,3.85
2018-12-05T11:32:49.682Z,4.05
2018-12-05T11:35:53.042Z,3.60
2018-12-05T11:38:57.164Z,4.17
2018-12-05T11:42:02.672Z,4.20
2018-12-05T11:45:07.680Z,3.70
2018-12-05T11:48:12.271Z,3.10
2018-12-05T11:51:16.721Z,3.72
2018-12-05T11:54:20.913Z,4.00
2018-12-05T11:57:25.567Z,3.80
2018-12-05T12:00:29.962Z,3.60
2018-12-05T12:03:34.600Z,3.65
2018-12-05T12:06:41.979Z,9.40
2018-12-05T12:09:46.235Z,4.35
2018-12-05T12:13:05.960Z,3.70
2018-12-05T12:16:10.126Z,3.25
2018-12-05T12:19:13.211Z,6.37
2018-12-05T12:22:16.198Z,3.22
2018-12-05T12:25:19.196Z,3.80
2018-12-05T12:28:22.183Z,3.20
2018-12-05T12:31:25.174Z,3.20
2018-12-05T12:34:28.167Z,2.70
2018-12-05T12:37:31.153Z,2.60
2018-12-05T12:40:34.246Z,2.98
2018-12-05T12:43:37.238Z,2.12
2018-12-05T12:46:40.230Z,3.45
2018-12-05T12:49:43.214Z,2.67
2018-12-05T12:52:46.211Z,2.40
2018-12-05T12:55:49.204Z,2.30
2018-12-05T12:58:52.278Z,2.40
2018-12-05T13:01:58.544Z,2.72
2018-12-05T13:05:04.829Z,2.75
2018-12-05T13:08:11.595Z,2.70
2018-12-05T13:11:16.160Z,2.40
2018-12-05T13:14:20.930Z,3.35
2018-12-05T13:17:26.991Z,2.60
2018-12-05T13:20:38.359Z,2.50
2018-12-05T13:23:41.401Z,2.27
2018-12-05T13:26:44.390Z,2.75
2018-12-05T13:29:47.386Z,2.62
2018-12-05T13:32:50.370Z,2.62
2018-12-05T13:35:53.364Z,2.87
2018-12-05T13:38:56.562Z,3.67
2018-12-05T13:41:59.550Z,2.53
2018-12-05T13:45:02.543Z,2.40
2018-12-05T13:48:06.175Z,2.50
2018-12-05T13:51:09.137Z,2.80
2018-12-05T13:54:12.122Z,2.27
2018-12-05T13:57:15.120Z,2.53
2018-12-05T14:00:18.107Z,3.80
2018-12-05T14:03:21.074Z,3.67
2018-12-05T14:06:24.187Z,2.20
2018-12-05T14:09:27.193Z,2.07
2018-12-05T14:12:34.602Z,2.30
2018-12-05T14:15:37.562Z,2.90
2018-12-05T14:18:40.555Z,2.50
2018-12-05T14:21:43.546Z,2.60
2018-12-05T14:24:47.251Z,3.07
2018-12-05T14:27:50.342Z,2.70
2018-12-05T14:30:53.335Z,3.27
2018-12-05T14:33:56.302Z,3.37
2018-12-05T14:36:59.379Z,2.70
2018-12-05T14:40:03.480Z,3.27
2018-12-05T14:43:06.454Z,3.10
2018-12-05T14:46:09.434Z,2.70
2018-12-05T14:49:12.829Z,2.90
2018-12-05T14:52:17.422Z,3.00
2018-12-05T14:55:22.438Z,2.70
2018-12-05T14:58:28.011Z,3.50
2018-12-05T15:01:33.994Z,2.87
2018-12-05T15:04:37.013Z,2.87
2018-12-05T15:07:40.103Z,3.43
2018-12-05T15:10:43.111Z,2.90
2018-12-05T15:13:46.114Z,3.13
2018-12-05T15:16:49.074Z,3.30
2018-12-05T15:19:52.154Z,2.97
2018-12-05T15:22:55.159Z,3.40
2018-12-05T15:25:58.150Z,3.20
2018-12-05T15:29:01.135Z,3.33
2018-12-05T15:32:04.139Z,3.43
2018-12-05T15:35:07.760Z,4.23
2018-12-05T15:38:10.732Z,4.17
2018-12-05T15:41:13.715Z,4.90
2018-12-05T15:44:16.707Z,3.90
2018-12-05T15:47:19.675Z,4.90
2018-12-05T15:50:22.687Z,5.00
2018-12-05T15:53:25.674Z,4.40
2018-12-05T15:56:28.705Z,4.70
2018-12-05T15:59:31.754Z,4.63
2018-12-05T16:02:34.899Z,5.27
2018-12-05T16:05:38.076Z,7.47
2018-12-05T16:08:41.221Z,6.80
2018-12-05T16:11:44.372Z,8.27
2018-12-05T16:14:47.575Z,8.67
2018-12-05T16:17:50.679Z,9.70
2018-12-05T16:20:53.905Z,9.83
2018-12-05T16:23:57.050Z,9.03
2018-12-05T16:27:00.517Z,9.07
2018-12-05T16:30:04.050Z,9.30
2018-12-05T16:33:07.491Z,9.03
2018-12-05T16:36:11.176Z,10.53
2018-12-05T16:39:14.724Z,14.60
2018-12-05T16:42:18.067Z,13.67
2018-12-05T16:45:21.169Z,13.80
2018-12-05T16:48:24.333Z,13.87
2018-12-05T16:51:27.447Z,13.47
2018-12-05T16:54:33.140Z,14.90
2018-12-05T16:57:36.287Z,15.50
2018-12-05T17:00:39.247Z,15.20
2018-12-05T17:03:42.387Z,14.73
2018-12-05T17:06:45.436Z,13.43
2018-12-05T17:09:48.467Z,13.27
2018-12-05T17:12:51.718Z,14.50
2018-12-05T17:15:54.965Z,14.80
2018-12-05T17:18:58.110Z,13.83
2018-12-05T17:22:01.168Z,13.57
2018-12-05T17:25:04.805Z,13.40
2018-12-05T17:28:07.827Z,14.47
2018-12-05T17:31:10.882Z,11.93
2018-12-05T17:34:13.916Z,16.40
2018-12-05T17:37:17.039Z,46.23
2018-12-05T17:40:20.091Z,23.60
2018-12-05T17:43:23.056Z,13.63
2018-12-05T17:46:26.086Z,16.00
2018-12-05T17:49:29.151Z,29.07
2018-12-05T17:52:32.376Z,30.93
2018-12-05T17:55:35.435Z,22.97
2018-12-05T17:58:38.562Z,22.07
2018-12-05T18:01:41.619Z,16.70
2018-12-05T18:04:44.626Z,13.97
2018-12-05T18:07:47.590Z,12.70
2018-12-05T18:10:50.643Z,11.47
2018-12-05T18:13:53.834Z,11.00
2018-12-05T18:16:56.994Z,10.50
2018-12-05T18:20:00.046Z,11.97
2018-12-05T18:23:03.079Z,11.03
2018-12-05T18:26:06.513Z,12.10
2018-12-05T18:29:09.682Z,10.70
2018-12-05T18:32:12.742Z,11.90
2018-12-05T18:35:16.078Z,11.47
2018-12-05T18:38:19.039Z,10.67
2018-12-05T18:41:22.862Z,11.63
2018-12-05T18:44:25.830Z,10.60
2018-12-05T18:47:28.947Z,14.07
2018-12-05T18:50:31.995Z,12.50
2018-12-05T18:53:35.047Z,10.07
2018-12-05T18:56:38.230Z,10.43
2018-12-05T18:59:41.252Z,10.97
2018-12-05T19:02:44.362Z,16.17
2018-12-05T19:05:47.659Z,19.77
2018-12-05T19:08:50.712Z,13.77
2018-12-05T19:11:53.794Z,16.13
2018-12-05T19:14:56.964Z,16.80
2018-12-05T19:18:00.411Z,14.33
2018-12-05T19:21:03.663Z,13.20
2018-12-05T19:24:07.067Z,14.20
2018-12-05T19:27:10.051Z,13.83
2018-12-05T19:30:14.823Z,14.10
2018-12-05T19:33:17.882Z,12.93
2018-12-05T19:36:21.219Z,14.27
2018-12-05T19:39:24.372Z,14.60
2018-12-05T19:42:27.805Z,16.70
2018-12-05T19:45:30.897Z,15.17
2018-12-05T19:48:34.804Z,17.03
2018-12-05T19:51:38.049Z,16.93
2018-12-05T19:54:41.597Z,17.07
2018-12-05T19:57:45.127Z,16.50
2018-12-05T20:00:48.814Z,17.67
2018-12-05T20:03:52.644Z,16.90
2018-12-05T20:06:56.195Z,16.97
2018-12-05T20:09:59.666Z,16.20
2018-12-05T20:13:05.243Z,17.27
2018-12-05T20:16:08.571Z,18.27
2018-12-05T20:19:11.879Z,17.73
2018-12-05T20:22:15.274Z,17.13
2018-12-05T20:25:19.465Z,17.63
2018-12-05T20:28:22.875Z,17.83
2018-12-05T20:31:26.237Z,16.77
2018-12-05T20:34:29.406Z,18.43
2018-12-05T20:37:33.069Z,17.27
2018-12-05T20:40:36.168Z,17.33
2018-12-05T20:43:39.454Z,21.80
2018-12-05T20:46:43.282Z,22.80
2018-12-05T20:49:47.002Z,22.20
2018-12-05T20:52:50.163Z,18.40
2018-12-05T20:55:53.606Z,17.93
2018-12-05T20:58:57.116Z,17.13
2018-12-05T21:02:00.330Z,14.90
2018-12-05T21:05:04.726Z,15.00
2018-12-05T21:08:08.238Z,14.53
2018-12-05T21:11:11.853Z,13.63
2018-12-05T21:14:15.106Z,14.60
2018-12-05T21:17:18.057Z,14.73
2018-12-05T21:20:21.414Z,13.67
2018-12-05T21:23:25.455Z,14.97
2018-12-05T21:26:29.625Z,15.47
2018-12-05T21:29:33.353Z,13.60
2018-12-05T21:32:37.622Z,12.43
2018-12-05T21:35:41.147Z,13.60
2018-12-05T21:38:44.278Z,14.07
2018-12-05T21:41:47.870Z,14.57
2018-12-05T21:44:50.899Z,13.23
2018-12-05T21:47:53.914Z,12.97
2018-12-05T21:50:57.041Z,12.70
2018-12-05T21:54:00.110Z,11.60
2018-12-05T21:57:03.138Z,10.57
2018-12-05T22:00:09.411Z,11.90
2018-12-05T22:03:12.802Z,11.13
2018-12-05T22:06:15.855Z,10.80
2018-12-05T22:09:18.876Z,11.47
2018-12-05T22:12:21.837Z,10.80
2018-12-05T22:15:24.973Z,11.27
2018-12-05T22:18:28.018Z,10.47
2018-12-05T22:21:31.154Z,9.90
2018-12-05T22:24:34.098Z,9.50
2018-12-05T22:27:37.234Z,9.17
2018-12-05T22:30:40.286Z,10.30
2018-12-05T22:33:43.302Z,9.63
2018-12-05T22:36:46.470Z,10.27
2018-12-05T22:39:49.490Z,11.30
2018-12-05T22:42:52.550Z,11.47
2018-12-05T22:45:55.894Z,12.43
2018-12-05T22:48:59.042Z,12.30
2018-12-05T22:52:02.283Z,11.63
2018-12-05T22:55:05.637Z,12.40
2018-12-05T22:58:08.609Z,11.33
2018-12-05T23:01:11.722Z,10.73
2018-12-05T23:04:14.714Z,9.73
2018-12-05T23:07:17.703Z,10.93
2018-12-05T23:10:20.701Z,10.50
2018-12-05T23:13:23.663Z,10.20
2018-12-05T23:16:26.670Z,10.80
2018-12-05T23:19:29.786Z,9.60
2018-12-05T23:22:32.754Z,9.37
2018-12-05T23:25:35.746Z,9.83
2018-12-05T23:28:38.743Z,9.53
2018-12-05T23:31:41.830Z,9.23
2018-12-05T23:34:44.824Z,8.57
2018-12-05T23:37:47.814Z,7.77
2018-12-05T23:40:51.682Z,8.57
2018-12-05T23:43:54.716Z,7.63
2018-12-05T23:46:57.712Z,8.57
2018-12-05T23:50:00.695Z,8.13
2018-12-05T23:53:03.683Z,8.33
2018-12-05T23:56:06.654Z,8.33
2018-12-05T23:59:09.662Z,7.20
